Time;durP1;ratioP1;P1;durP2;ratioP2;P2;SDS_P1;SDS_P2;PMS_P1;PMS_P2;Temp;Humidity;BMP_temperature;BMP_pressure;BME280_temperature;BME280_humidity;BME280_pressure;Samples;Min_cycle;Max_cycle;Signal;HPM_P1;HPM_P2
2023/09/30 00:01:00;;;;;;;8.52;2.65;;;16.60;99.90;;;;;;5021530;28;20073;-74
2023/09/30 00:03:26;;;;;;;5.93;2.70;;;16.70;99.90;;;;;;5022156;28;20074;-74
2023/09/30 00:05:51;;;;;;;8.55;2.63;;;16.60;99.90;;;;;;5020605;28;20026;-70
2023/09/30 00:08:17;;;;;;;9.13;2.78;;;16.60;99.90;;;;;;5020893;28;20022;-70
2023/09/30 00:10:42;;;;;;;7.72;3.28;;;16.70;99.90;;;;;;5020543;28;20137;-70
2023/09/30 00:13:08;;;;;;;11.05;3.05;;;16.70;99.90;;;;;;5020499;28;20116;-70
2023/09/30 00:15:33;;;;;;;13.82;3.20;;;16.60;99.90;;;;;;5020419;28;20030;-74
2023/09/30 00:18:00;;;;;;;9.32;2.65;;;16.60;99.90;;;;;;5019880;28;20022;-74
2023/09/30 00:20:25;;;;;;;9.75;3.03;;;16.50;99.90;;;;;;5020381;28;20018;-73
2023/09/30 00:22:51;;;;;;;10.63;2.67;;;16.60;99.90;;;;;;5020175;28;20030;-74
2023/09/30 00:25:16;;;;;;;7.75;2.90;;;16.60;99.90;;;;;;5019514;28;20021;-68
2023/09/30 00:27:42;;;;;;;8.93;2.63;;;16.60;99.90;;;;;;5019572;28;20028;-68
2023/09/30 00:30:08;;;;;;;7.97;2.80;;;16.60;99.90;;;;;;5020199;28;20032;-66
2023/09/30 00:32:33;;;;;;;4.78;2.20;;;16.60;99.90;;;;;;5020319;28;20026;-66
2023/09/30 00:35:01;;;;;;;8.40;3.10;;;16.60;99.90;;;;;;5019328;28;20057;-66
2023/09/30 00:37:27;;;;;;;9.63;3.03;;;16.50;99.90;;;;;;5019192;28;20034;-69
2023/09/30 00:39:53;;;;;;;6.32;2.45;;;16.60;99.90;;;;;;5019388;28;20022;-69
2023/09/30 00:42:20;;;;;;;7.70;2.20;;;16.70;99.90;;;;;;5020047;28;20037;-69
2023/09/30 00:44:46;;;;;;;9.30;2.63;;;16.70;99.90;;;;;;5018607;28;20014;-68
2023/09/30 00:47:14;;;;;;;8.07;2.72;;;16.70;99.90;;;;;;5019029;28;20025;-68
2023/09/30 00:49:41;;;;;;;5.63;3.03;;;16.60;99.90;;;;;;5019934;28;20029;-66
2023/09/30 00:52:07;;;;;;;8.15;2.22;;;16.50;99.90;;;;;;5020035;28;20113;-66
2023/09/30 00:54:35;;;;;;;7.70;2.80;;;16.40;99.90;;;;;;5019765;28;20100;-66
2023/09/30 00:57:01;;;;;;;9.20;2.92;;;16.40;99.90;;;;;;5019964;28;20022;-67
2023/09/30 00:59:28;;;;;;;8.65;2.80;;;16.30;99.90;;;;;;5019516;28;20030;-67
2023/09/30 01:01:57;;;;;;;7.15;2.70;;;16.30;99.90;;;;;;5018778;28;20026;-66
2023/09/30 01:04:23;;;;;;;7.72;3.20;;;16.30;99.90;;;;;;5019498;28;20053;-66
2023/09/30 01:06:49;;;;;;;5.97;2.58;;;16.30;99.90;;;;;;5018851;28;20028;-69
2023/09/30 01:09:14;;;;;;;6.60;2.75;;;16.20;99.90;;;;;;5019485;28;20026;-68
2023/09/30 01:11:44;;;;;;;8.57;2.88;;;16.20;99.90;;;;;;5018805;28;20029;-73
2023/09/30 01:14:34;;;;;;;11.23;2.88;;;16.20;99.90;;;;;;5018572;28;20057;-74
2023/09/30 01:17:00;;;;;;;6.78;3.00;;;16.10;99.90;;;;;;5019837;28;20029;-69
2023/09/30 01:19:26;;;;;;;8.02;3.13;;;16.10;99.90;;;;;;5018483;28;20026;-68
2023/09/30 01:21:59;;;;;;;7.18;2.95;;;16.10;99.90;;;;;;5019398;28;20037;-68
2023/09/30 01:24:28;;;;;;;10.73;3.05;;;16.10;99.90;;;;;;5018626;28;20033;-67
2023/09/30 01:26:55;;;;;;;11.00;3.53;;;16.00;99.90;;;;;;5018427;28;20033;-74
2023/09/30 01:29:22;;;;;;;14.98;3.40;;;16.00;99.90;;;;;;5018648;28;20026;-74
2023/09/30 01:31:47;;;;;;;8.82;3.85;;;16.00;99.90;;;;;;5018186;28;20108;-73
2023/09/30 01:34:15;;;;;;;9.32;3.10;;;16.00;99.90;;;;;;5018270;28;20061;-74
2023/09/30 01:36:41;;;;;;;11.50;4.07;;;15.90;99.90;;;;;;5019502;28;20092;-74
2023/09/30 01:39:07;;;;;;;12.45;3.47;;;15.80;99.90;;;;;;5017957;28;20080;-74
2023/09/30 01:41:32;;;;;;;9.52;3.80;;;15.80;99.90;;;;;;5018799;28;20022;-74
2023/09/30 01:43:58;;;;;;;15.18;3.65;;;15.80;99.90;;;;;;5017861;28;20064;-74
2023/09/30 01:46:23;;;;;;;13.15;3.53;;;15.80;99.90;;;;;;5017863;28;20018;-74
2023/09/30 01:48:49;;;;;;;9.50;3.58;;;15.70;99.90;;;;;;5018209;28;20018;-74
2023/09/30 01:51:14;;;;;;;12.93;3.95;;;15.70;99.90;;;;;;5017635;28;20068;-74
2023/09/30 01:53:40;;;;;;;11.07;4.10;;;15.60;99.90;;;;;;5018074;28;20025;-74
2023/09/30 01:56:06;;;;;;;8.48;3.15;;;15.60;99.90;;;;;;5017566;28;20022;-74
2023/09/30 01:58:31;;;;;;;10.75;3.75;;;15.50;99.90;;;;;;5018513;28;20033;-73
2023/09/30 02:01:03;;;;;;;12.38;3.95;;;15.40;99.90;;;;;;5017726;28;20037;-70
2023/09/30 02:03:29;;;;;;;11.70;3.92;;;15.40;99.90;;;;;;5018282;28;20056;-69
2023/09/30 02:05:56;;;;;;;8.55;3.47;;;15.40;99.90;;;;;;5018462;28;20026;-69
2023/09/30 02:08:22;;;;;;;9.93;3.40;;;15.40;99.90;;;;;;5017551;28;20026;-69
2023/09/30 02:10:48;;;;;;;15.05;3.65;;;15.30;99.90;;;;;;5017461;28;20048;-69
2023/09/30 02:13:13;;;;;;;10.93;3.13;;;15.30;99.90;;;;;;5017439;28;20088;-69
2023/09/30 02:15:43;;;;;;;10.57;4.00;;;15.30;99.90;;;;;;5017712;28;20098;-69
2023/09/30 02:18:09;;;;;;;9.60;3.30;;;15.20;99.90;;;;;;5018190;28;20032;-69
2023/09/30 02:20:39;;;;;;;6.60;3.08;;;15.20;99.90;;;;;;5018045;28;20021;-74
2023/09/30 02:23:05;;;;;;;10.68;3.55;;;15.20;99.90;;;;;;5018388;28;20022;-73
2023/09/30 02:25:32;;;;;;;10.95;3.53;;;15.20;99.90;;;;;;5018135;28;20120;-74
2023/09/30 02:27:57;;;;;;;9.43;3.15;;;15.10;99.90;;;;;;5017157;28;20029;-74
2023/09/30 02:30:23;;;;;;;9.85;3.00;;;15.10;99.90;;;;;;5017972;28;20145;-73
2023/09/30 02:32:49;;;;;;;10.10;3.50;;;15.10;99.90;;;;;;5017931;28;20029;-68
2023/09/30 02:35:15;;;;;;;12.93;3.25;;;15.10;99.90;;;;;;5017048;28;20026;-68
2023/09/30 02:37:41;;;;;;;13.13;3.67;;;15.10;99.90;;;;;;5017175;28;20022;-73
2023/09/30 02:40:10;;;;;;;6.60;2.70;;;15.10;99.90;;;;;;5017780;28;20037;-66
2023/09/30 02:42:37;;;;;;;7.40;3.15;;;15.10;99.90;;;;;;5016811;28;20029;-66
2023/09/30 02:45:04;;;;;;;10.20;3.47;;;15.10;99.90;;;;;;5017700;28;20018;-74
2023/09/30 02:47:31;;;;;;;6.60;2.65;;;15.10;99.90;;;;;;5016719;28;20030;-69
2023/09/30 02:49:58;;;;;;;7.43;2.83;;;15.10;99.90;;;;;;5017765;28;20041;-68
2023/09/30 02:52:24;;;;;;;9.57;3.85;;;14.90;99.90;;;;;;5016689;28;20033;-73
2023/09/30 02:54:50;;;;;;;10.65;3.03;;;14.90;99.90;;;;;;5018119;28;20026;-68
2023/09/30 02:57:15;;;;;;;9.90;3.25;;;14.90;99.90;;;;;;5017615;28;20101;-68
2023/09/30 02:59:42;;;;;;;11.02;3.40;;;14.90;99.90;;;;;;5017415;28;20026;-68
2023/09/30 03:02:07;;;;;;;12.43;3.33;;;14.90;99.90;;;;;;5017810;28;20049;-68
2023/09/30 03:04:33;;;;;;;9.50;3.83;;;15.00;99.90;;;;;;5017382;28;20028;-68
2023/09/30 03:06:58;;;;;;;10.23;3.22;;;14.90;99.90;;;;;;5016705;28;20022;-68
2023/09/30 03:09:24;;;;;;;10.88;3.42;;;14.80;99.90;;;;;;5016579;28;20026;-68
2023/09/30 03:11:49;;;;;;;8.90;2.88;;;14.70;99.90;;;;;;5017684;28;20026;-68
2023/09/30 03:14:15;;;;;;;9.45;3.30;;;14.70;99.90;;;;;;5016596;28;20034;-68
2023/09/30 03:16:42;;;;;;;8.07;3.67;;;14.70;99.90;;;;;;5017226;28;20034;-68
2023/09/30 03:19:08;;;;;;;16.02;3.97;;;14.70;99.90;;;;;;5017398;28;20049;-68
2023/09/30 03:21:36;;;;;;;15.15;3.13;;;14.60;99.90;;;;;;5016495;28;20068;-66
2023/09/30 03:24:04;;;;;;;5.60;2.83;;;14.60;99.90;;;;;;5016354;28;20022;-66
2023/09/30 03:26:30;;;;;;;11.13;3.58;;;14.60;99.90;;;;;;5017247;28;20022;-66
2023/09/30 03:28:56;;;;;;;13.05;3.30;;;14.60;99.90;;;;;;5016176;28;20112;-66
2023/09/30 03:31:22;;;;;;;5.03;2.53;;;14.50;99.90;;;;;;5017211;28;20057;-66
2023/09/30 03:33:51;;;;;;;11.85;3.00;;;14.50;99.90;;;;;;5016964;28;20101;-66
2023/09/30 03:36:16;;;;;;;7.07;2.58;;;14.40;99.90;;;;;;5017479;28;20022;-66
2023/09/30 03:38:44;;;;;;;13.25;4.00;;;14.40;99.90;;;;;;5017261;28;20025;-66
2023/09/30 03:41:13;;;;;;;12.88;3.50;;;14.40;99.90;;;;;;5015993;28;20026;-66
2023/09/30 03:43:40;;;;;;;10.90;3.75;;;14.30;99.90;;;;;;5016152;28;20049;-66
2023/09/30 03:46:06;;;;;;;12.10;3.00;;;14.30;99.90;;;;;;5016090;28;20029;-66
2023/09/30 03:48:32;;;;;;;13.15;3.20;;;14.20;99.90;;;;;;5016391;28;20026;-66
2023/09/30 03:51:07;;;;;;;9.68;3.40;;;14.20;99.90;;;;;;5016473;28;20120;-67
2023/09/30 03:53:32;;;;;;;12.65;3.22;;;14.10;99.90;;;;;;5017010;28;20032;-66
2023/09/30 03:55:58;;;;;;;6.10;2.97;;;14.00;99.90;;;;;;5016140;28;20021;-66
2023/09/30 03:58:23;;;;;;;7.45;3.45;;;13.90;99.90;;;;;;5016404;28;20032;-66
2023/09/30 04:00:51;;;;;;;9.52;4.10;;;14.00;99.90;;;;;;5016989;28;20034;-66
2023/09/30 04:03:17;;;;;;;7.57;3.20;;;13.90;99.90;;;;;;5016741;28;20018;-66
2023/09/30 04:05:42;;;;;;;13.85;2.53;;;13.90;99.90;;;;;;5016276;28;20060;-66
2023/09/30 04:08:08;;;;;;;8.25;2.70;;;14.20;99.90;;;;;;5016953;28;20026;-66
2023/09/30 04:10:34;;;;;;;12.35;2.83;;;14.20;99.90;;;;;;5015904;28;20049;-66
2023/09/30 04:13:00;;;;;;;6.65;2.60;;;14.30;99.90;;;;;;5016735;28;20030;-68
2023/09/30 04:15:25;;;;;;;14.80;3.28;;;14.30;99.90;;;;;;5016143;28;20029;-67
2023/09/30 04:17:53;;;;;;;7.68;2.20;;;14.30;99.90;;;;;;5017196;28;20030;-66
2023/09/30 04:20:23;;;;;;;6.28;2.50;;;14.30;99.90;;;;;;5019511;28;20057;-66
2023/09/30 04:22:49;;;;;;;4.57;2.35;;;14.30;99.90;;;;;;5020013;28;20032;-66
2023/09/30 04:25:16;;;;;;;9.57;2.75;;;14.30;99.90;;;;;;5019468;28;20029;-66
2023/09/30 04:27:42;;;;;;;11.15;2.55;;;14.30;99.90;;;;;;5019352;28;20025;-66
2023/09/30 04:30:11;;;;;;;9.75;2.53;;;14.30;99.90;;;;;;5019236;28;20036;-66
2023/09/30 04:32:38;;;;;;;9.07;2.65;;;14.30;99.90;;;;;;5020232;28;20030;-67
2023/09/30 04:35:04;;;;;;;10.68;2.80;;;14.30;99.90;;;;;;5019280;28;20080;-66
2023/09/30 04:37:30;;;;;;;9.80;2.60;;;14.30;99.90;;;;;;5019437;28;20109;-66
2023/09/30 04:39:56;;;;;;;9.10;3.33;;;14.20;99.90;;;;;;5020078;28;20056;-66
2023/09/30 04:42:21;;;;;;;7.47;3.72;;;14.20;99.90;;;;;;5019036;28;20022;-66
2023/09/30 04:44:47;;;;;;;9.05;2.47;;;14.20;99.90;;;;;;5020021;28;20061;-66
2023/09/30 04:47:12;;;;;;;8.40;2.83;;;14.00;99.90;;;;;;5019512;28;20026;-66
2023/09/30 04:49:38;;;;;;;8.57;2.75;;;13.80;99.90;;;;;;5019106;28;20029;-66
2023/09/30 04:52:07;;;;;;;8.18;3.03;;;13.70;99.90;;;;;;5019004;28;20026;-66
2023/09/30 04:54:35;;;;;;;11.88;2.72;;;13.70;99.90;;;;;;5020044;28;20113;-66
2023/09/30 04:57:01;;;;;;;10.82;2.63;;;13.70;99.90;;;;;;5019078;28;20054;-66
2023/09/30 04:59:26;;;;;;;3.55;1.90;;;13.70;99.90;;;;;;5018780;28;20029;-66
2023/09/30 05:01:53;;;;;;;5.25;2.03;;;13.60;99.90;;;;;;5018822;28;20096;-66
2023/09/30 05:04:18;;;;;;;11.98;2.92;;;13.60;99.90;;;;;;5019582;28;20018;-66
2023/09/30 05:06:44;;;;;;;10.38;2.60;;;13.70;99.90;;;;;;5019644;28;20025;-66
2023/09/30 05:09:10;;;;;;;11.82;2.22;;;13.60;99.90;;;;;;5019789;28;20022;-66
2023/09/30 05:11:35;;;;;;;9.93;2.00;;;13.60;99.90;;;;;;5019523;28;20022;-66
2023/09/30 05:14:01;;;;;;;12.77;3.10;;;13.70;99.90;;;;;;5018351;28;20037;-66
2023/09/30 05:16:27;;;;;;;8.57;3.03;;;13.70;99.90;;;;;;5018444;28;20030;-66
2023/09/30 05:18:52;;;;;;;12.07;2.97;;;13.60;99.90;;;;;;5019778;28;20026;-66
2023/09/30 05:21:18;;;;;;;5.97;2.88;;;13.60;99.90;;;;;;5019616;28;20034;-66
2023/09/30 05:23:43;;;;;;;6.43;2.85;;;13.60;99.90;;;;;;5019414;28;20105;-66
2023/09/30 05:26:09;;;;;;;10.32;2.97;;;13.50;99.90;;;;;;5018378;28;20026;-66
2023/09/30 05:28:35;;;;;;;7.45;2.80;;;13.40;99.90;;;;;;5018622;28;20022;-66
2023/09/30 05:31:02;;;;;;;12.10;2.45;;;13.40;99.90;;;;;;5017524;28;20054;-66
2023/09/30 05:33:28;;;;;;;7.97;3.33;;;13.40;99.90;;;;;;5018034;28;20030;-66
2023/09/30 05:35:54;;;;;;;7.97;3.42;;;13.40;99.90;;;;;;5019093;28;20036;-66
2023/09/30 05:38:20;;;;;;;5.45;2.60;;;13.40;99.90;;;;;;5018334;28;20030;-66
2023/09/30 05:40:46;;;;;;;9.98;3.25;;;13.30;99.90;;;;;;5018390;28;20026;-66
2023/09/30 05:43:13;;;;;;;9.77;3.70;;;13.30;99.90;;;;;;5017977;28;20041;-66
2023/09/30 05:45:44;;;;;;;12.50;3.78;;;13.40;99.90;;;;;;5017958;28;20026;-66
2023/09/30 05:48:10;;;;;;;8.80;3.75;;;13.40;99.90;;;;;;5018900;28;20018;-66
2023/09/30 05:50:36;;;;;;;9.20;3.63;;;13.40;99.90;;;;;;5018752;28;20030;-66
2023/09/30 05:53:02;;;;;;;10.27;3.95;;;13.30;99.90;;;;;;5018657;28;20033;-66
2023/09/30 05:55:29;;;;;;;12.80;4.45;;;13.20;99.90;;;;;;5018055;28;20036;-67
2023/09/30 05:57:55;;;;;;;11.98;4.43;;;13.10;99.90;;;;;;5018084;28;20026;-66
2023/09/30 06:00:21;;;;;;;9.23;4.20;;;13.00;99.90;;;;;;5017967;28;20188;-66
2023/09/30 06:02:48;;;;;;;5.60;3.33;;;13.10;99.90;;;;;;5017646;28;20041;-66
2023/09/30 06:05:15;;;;;;;10.82;3.42;;;13.00;99.90;;;;;;5018479;28;20018;-66
2023/09/30 06:07:45;;;;;;;8.18;3.35;;;13.10;99.90;;;;;;5017965;28;20072;-66
2023/09/30 06:10:11;;;;;;;6.47;3.00;;;13.10;99.90;;;;;;5018392;28;20018;-66
2023/09/30 06:12:36;;;;;;;7.18;3.20;;;13.10;99.90;;;;;;5017548;28;20125;-66
2023/09/30 06:15:02;;;;;;;7.70;3.38;;;13.10;99.90;;;;;;5018593;28;20065;-66
2023/09/30 06:17:28;;;;;;;11.90;3.63;;;13.10;99.90;;;;;;5017292;28;20030;-66
2023/09/30 06:19:54;;;;;;;10.18;3.60;;;13.20;99.90;;;;;;5018176;28;20034;-66
2023/09/30 06:22:21;;;;;;;11.20;3.95;;;13.40;99.90;;;;;;5018388;28;20052;-66
2023/09/30 06:24:48;;;;;;;14.80;4.68;;;13.40;99.90;;;;;;5017979;28;20097;-66
2023/09/30 06:27:13;;;;;;;11.50;4.45;;;13.50;99.90;;;;;;5017645;28;20029;-66
2023/09/30 06:29:40;;;;;;;13.00;3.67;;;13.50;99.90;;;;;;5017404;28;20026;-66
2023/09/30 06:32:07;;;;;;;10.38;3.63;;;13.40;99.90;;;;;;5017974;28;20026;-66
2023/09/30 06:34:34;;;;;;;5.93;3.17;;;13.40;99.90;;;;;;5017341;28;20093;-66
2023/09/30 06:36:59;;;;;;;12.38;3.25;;;13.40;99.90;;;;;;5016888;28;20029;-66
2023/09/30 06:39:25;;;;;;;9.05;3.85;;;13.40;99.90;;;;;;5017485;28;20030;-66
2023/09/30 06:41:51;;;;;;;9.15;3.65;;;13.40;99.90;;;;;;5016788;28;20026;-66
2023/09/30 06:44:16;;;;;;;10.52;4.85;;;13.40;99.90;;;;;;5016762;28;20022;-66
2023/09/30 06:46:43;;;;;;;15.55;5.43;;;13.60;99.90;;;;;;5017764;28;20026;-66
2023/09/30 06:49:08;;;;;;;14.88;5.35;;;13.90;99.90;;;;;;5016759;28;20033;-66
2023/09/30 06:51:34;;;;;;;14.43;4.85;;;14.00;99.90;;;;;;5017174;28;20018;-66
2023/09/30 06:54:00;;;;;;;7.22;4.03;;;14.30;99.90;;;;;;5016799;28;20089;-66
2023/09/30 06:56:26;;;;;;;15.40;4.80;;;14.20;99.90;;;;;;5017921;28;20052;-66
2023/09/30 06:58:52;;;;;;;8.88;5.15;;;14.10;99.90;;;;;;5017586;28;20022;-66
2023/09/30 07:01:17;;;;;;;10.93;4.78;;;14.10;99.90;;;;;;5017443;28;20065;-66
2023/09/30 07:03:43;;;;;;;15.20;5.30;;;14.30;99.90;;;;;;5017409;28;20097;-66
2023/09/30 07:06:09;;;;;;;14.38;5.97;;;14.50;99.90;;;;;;5016830;28;20132;-66
2023/09/30 07:08:35;;;;;;;11.45;5.57;;;14.50;99.90;;;;;;5017366;28;20018;-66
2023/09/30 07:11:01;;;;;;;16.30;5.30;;;14.50;99.90;;;;;;5016874;28;20022;-67
2023/09/30 07:13:27;;;;;;;13.73;6.07;;;14.70;99.90;;;;;;5017285;28;20034;-66
2023/09/30 07:15:53;;;;;;;21.27;6.03;;;14.60;99.90;;;;;;5017271;28;20106;-66
2023/09/30 07:18:18;;;;;;;11.70;5.60;;;14.70;99.90;;;;;;5017663;28;20032;-66
2023/09/30 07:20:44;;;;;;;16.40;6.18;;;14.70;99.90;;;;;;5016643;28;20032;-66
2023/09/30 07:23:09;;;;;;;13.95;6.13;;;14.70;99.90;;;;;;5017192;28;20026;-66
2023/09/30 07:25:35;;;;;;;15.68;7.45;;;14.80;99.90;;;;;;5016336;28;20025;-66
2023/09/30 07:28:01;;;;;;;16.92;5.85;;;14.80;99.90;;;;;;5016311;28;20032;-66
2023/09/30 07:30:27;;;;;;;13.88;6.55;;;14.80;99.90;;;;;;5017346;28;20045;-66
2023/09/30 07:32:53;;;;;;;13.98;6.70;;;14.60;99.90;;;;;;5017127;28;20057;-66
2023/09/30 07:35:18;;;;;;;12.40;6.35;;;14.60;99.90;;;;;;5017391;28;20026;-67
2023/09/30 07:37:44;;;;;;;14.18;6.93;;;14.70;99.90;;;;;;5016471;28;20030;-66
2023/09/30 07:40:11;;;;;;;14.48;6.18;;;14.70;99.90;;;;;;5017090;28;20022;-66
2023/09/30 07:42:36;;;;;;;15.60;6.55;;;14.70;99.90;;;;;;5016065;28;20030;-66
2023/09/30 07:45:06;;;;;;;14.60;6.53;;;14.60;99.90;;;;;;5016422;28;20098;-66
2023/09/30 07:47:33;;;;;;;11.10;6.38;;;14.70;99.90;;;;;;5016516;28;20025;-66
2023/09/30 07:49:59;;;;;;;11.57;6.07;;;14.90;99.90;;;;;;5017042;28;20136;-67
2023/09/30 07:52:26;;;;;;;13.70;6.25;;;14.90;99.90;;;;;;5016768;28;20033;-66
2023/09/30 07:54:51;;;;;;;17.33;6.80;;;15.00;99.90;;;;;;5021241;28;20045;-66
2023/09/30 07:57:17;;;;;;;17.42;6.38;;;15.30;99.90;;;;;;5020794;28;20026;-66
2023/09/30 07:59:42;;;;;;;16.50;6.03;;;15.30;99.90;;;;;;5021290;28;20033;-66
2023/09/30 08:02:08;;;;;;;13.00;5.72;;;15.30;99.90;;;;;;5020002;28;20076;-66
2023/09/30 08:04:34;;;;;;;14.25;6.72;;;15.50;99.90;;;;;;5020742;28;20025;-66
2023/09/30 08:06:59;;;;;;;15.95;7.72;;;15.70;99.90;;;;;;5021248;28;20034;-66
2023/09/30 08:09:25;;;;;;;13.77;6.53;;;15.70;99.90;;;;;;5019727;28;20022;-66
2023/09/30 08:11:53;;;;;;;16.08;6.30;;;15.70;99.90;;;;;;5020507;28;20033;-66
2023/09/30 08:14:19;;;;;;;17.45;6.40;;;15.80;99.90;;;;;;5057069;22;20050;-70
2023/09/30 08:16:44;;;;;;;21.92;6.68;;;15.80;99.90;;;;;;5040389;28;20087;-69
2023/09/30 08:19:10;;;;;;;16.40;6.95;;;15.70;99.90;;;;;;5040282;28;20021;-69
2023/09/30 08:21:36;;;;;;;13.93;6.22;;;15.70;99.90;;;;;;5040463;28;20034;-69
2023/09/30 08:24:02;;;;;;;13.60;6.00;;;15.70;99.90;;;;;;5040125;28;20036;-69
2023/09/30 08:26:28;;;;;;;16.85;5.75;;;15.80;99.90;;;;;;5039992;28;20028;-69
2023/09/30 08:28:53;;;;;;;10.57;6.20;;;15.90;99.90;;;;;;5039099;28;20022;-69
2023/09/30 08:31:19;;;;;;;15.55;6.28;;;16.00;99.90;;;;;;5039519;28;20056;-69
2023/09/30 08:33:45;;;;;;;17.88;6.40;;;16.10;99.90;;;;;;5039856;28;20161;-69
2023/09/30 08:36:12;;;;;;;19.25;6.78;;;16.20;99.90;;;;;;5039075;28;20028;-69
2023/09/30 08:38:38;;;;;;;14.20;5.68;;;16.50;99.90;;;;;;5039971;28;20028;-69
2023/09/30 08:41:04;;;;;;;15.15;5.90;;;16.70;99.90;;;;;;5039345;28;20021;-69
2023/09/30 08:43:31;;;;;;;15.65;5.65;;;16.70;99.90;;;;;;5039669;28;20031;-70
2023/09/30 08:45:59;;;;;;;15.75;6.30;;;16.60;99.90;;;;;;5039195;28;20026;-69
2023/09/30 08:48:27;;;;;;;23.77;5.90;;;16.40;99.90;;;;;;5038903;28;20029;-69
2023/09/30 08:50:57;;;;;;;12.73;5.10;;;16.50;99.90;;;;;;5039756;28;20100;-69
2023/09/30 08:53:23;;;;;;;10.15;4.85;;;16.60;99.90;;;;;;5039859;28;20021;-69
2023/09/30 08:55:53;;;;;;;17.48;5.57;;;16.70;99.90;;;;;;5039981;28;20076;-70
2023/09/30 08:58:20;;;;;;;12.65;4.65;;;16.90;99.90;;;;;;5038678;28;20029;-69
2023/09/30 09:00:47;;;;;;;13.32;4.75;;;16.80;99.90;;;;;;5038701;28;20025;-69
2023/09/30 09:03:12;;;;;;;16.33;4.75;;;16.80;99.90;;;;;;5038497;28;20022;-69
2023/09/30 09:05:38;;;;;;;8.73;3.40;;;16.90;99.90;;;;;;5037668;28;20116;-69
2023/09/30 09:08:04;;;;;;;10.13;3.75;;;17.20;99.90;;;;;;5038418;28;20075;-69
2023/09/30 09:10:29;;;;;;;11.05;3.30;;;17.30;99.90;;;;;;5039559;28;20071;-69
2023/09/30 09:12:57;;;;;;;10.70;3.05;;;17.50;99.90;;;;;;5039347;28;20096;-69
2023/09/30 09:15:29;;;;;;;15.35;4.25;;;17.40;99.90;;;;;;5038438;28;20110;-69
2023/09/30 09:17:55;;;;;;;12.48;3.83;;;17.70;99.90;;;;;;5038353;28;20032;-69
2023/09/30 09:20:25;;;;;;;10.93;3.58;;;17.80;99.90;;;;;;5038164;28;20025;-69
2023/09/30 09:22:55;;;;;;;11.53;3.50;;;17.90;99.90;;;;;;5038207;28;20048;-69
2023/09/30 09:25:22;;;;;;;10.95;3.42;;;17.90;99.90;;;;;;5039183;28;20014;-69
2023/09/30 09:27:49;;;;;;;13.68;3.45;;;17.80;99.90;;;;;;5039244;28;20026;-69
2023/09/30 09:30:15;;;;;;;13.75;3.40;;;17.80;99.90;;;;;;5038467;28;20028;-69
2023/09/30 09:33:00;;;;;;;8.13;3.08;;;17.70;99.90;;;;;;5038091;28;20052;-69
2023/09/30 09:35:32;;;;;;;11.65;2.75;;;17.60;99.90;;;;;;5038863;28;20029;-69
2023/09/30 09:38:04;;;;;;;11.55;3.65;;;17.50;99.90;;;;;;5038889;28;20100;-69
2023/09/30 09:40:32;;;;;;;8.02;2.10;;;17.40;99.90;;;;;;5037900;28;20025;-69
2023/09/30 09:42:58;;;;;;;6.25;2.33;;;17.30;99.90;;;;;;5038870;28;20033;-69
2023/09/30 09:45:28;;;;;;;5.65;2.40;;;17.30;99.90;;;;;;5038055;28;20018;-70
2023/09/30 09:47:54;;;;;;;10.30;3.85;;;17.30;99.90;;;;;;5038654;28;20068;-69
2023/09/30 09:50:22;;;;;;;9.40;2.85;;;17.20;99.90;;;;;;5038682;28;20021;-69
2023/09/30 09:52:52;;;;;;;21.05;3.00;;;17.20;99.90;;;;;;5038642;28;20033;-69
2023/09/30 09:55:21;;;;;;;8.45;2.72;;;17.40;99.90;;;;;;5039001;28;20163;-76
2023/09/30 09:57:48;;;;;;;9.57;2.42;;;17.50;99.90;;;;;;5038211;28;20030;-76
2023/09/30 10:00:25;;;;;;;21.80;3.58;;;17.70;99.90;;;;;;5037521;28;20088;-75
2023/09/30 10:02:51;;;;;;;6.47;2.53;;;18.00;99.90;;;;;;5038715;28;20079;-76
2023/09/30 10:05:18;;;;;;;9.27;2.72;;;18.20;99.90;;;;;;5038432;28;20118;-76
2023/09/30 10:07:56;;;;;;;7.22;2.60;;;18.50;99.90;;;;;;5038069;28;20026;-76
2023/09/30 10:10:24;;;;;;;12.73;2.92;;;18.70;99.90;;;;;;5038155;28;20022;-75
2023/09/30 10:12:50;;;;;;;4.63;2.20;;;18.70;99.90;;;;;;5037174;28;20034;-76
2023/09/30 10:15:25;;;;;;;7.20;2.20;;;19.00;99.90;;;;;;5037128;28;20037;-76
2023/09/30 10:18:08;;;;;;;10.77;2.72;;;18.70;99.90;;;;;;5037326;28;20056;-76
2023/09/30 10:20:41;;;;;;;7.95;2.42;;;18.80;99.90;;;;;;5038080;28;20029;-76
2023/09/30 10:23:25;;;;;;;6.28;1.67;;;19.10;99.90;;;;;;5036831;28;20021;-76
2023/09/30 10:26:09;;;;;;;11.68;2.65;;;19.60;99.90;;;;;;5037899;28;20045;-77
2023/09/30 10:28:44;;;;;;;9.40;2.55;;;19.80;99.90;;;;;;5038160;28;20041;-76
2023/09/30 10:31:21;;;;;;;8.82;2.45;;;20.00;99.90;;;;;;5038161;28;20017;-76
2023/09/30 10:34:02;;;;;;;8.93;2.25;;;19.70;99.90;;;;;;5037971;28;20033;-76
2023/09/30 10:36:29;;;;;;;5.60;1.70;;;19.70;99.90;;;;;;5037133;28;20061;-75
2023/09/30 10:38:55;;;;;;;8.70;2.15;;;19.90;99.90;;;;;;5036838;28;20036;-76
2023/09/30 10:41:39;;;;;;;5.35;2.35;;;20.30;99.90;;;;;;5037879;28;20026;-76
2023/09/30 10:44:25;;;;;;;7.90;2.15;;;20.90;99.90;;;;;;5037779;28;20022;-76
2023/09/30 10:46:51;;;;;;;8.65;2.55;;;21.10;99.90;;;;;;5036592;28;20017;-76
2023/09/30 10:49:22;;;;;;;12.10;3.38;;;21.20;99.90;;;;;;5036932;28;20098;-76
2023/09/30 10:51:54;;;;;;;5.53;2.50;;;21.00;99.90;;;;;;5036507;28;20026;-76
2023/09/30 10:54:23;;;;;;;;;;;20.70;99.90;;;;;;5037863;28;20025;-76
2023/09/30 10:56:49;;;;;;;11.60;3.03;;;20.40;99.90;;;;;;5037499;28;19952;-76
2023/09/30 10:59:22;;;;;;;9.77;3.25;;;20.50;99.90;;;;;;5037331;28;20061;-76
2023/09/30 11:01:49;;;;;;;8.18;2.30;;;20.90;99.90;;;;;;5037155;28;20026;-76
2023/09/30 11:04:15;;;;;;;4.68;1.75;;;21.30;99.90;;;;;;5036528;28;20025;-76
2023/09/30 11:06:42;;;;;;;10.23;2.92;;;21.50;99.90;;;;;;5036489;28;20052;-76
2023/09/30 11:09:13;;;;;;;5.93;1.92;;;22.30;99.90;;;;;;5037100;28;20032;-77
2023/09/30 11:11:44;;;;;;;7.80;2.42;;;22.80;99.90;;;;;;5036410;28;20031;-78
2023/09/30 11:14:36;;;;;;;7.97;2.58;;;23.40;99.90;;;;;;5036025;28;20047;-78
2023/09/30 11:17:06;;;;;;;7.88;2.25;;;22.80;99.90;;;;;;5033497;28;20033;-78
2023/09/30 11:19:37;;;;;;;7.65;2.30;;;23.00;99.90;;;;;;5036397;28;20021;-78
2023/09/30 11:22:03;;;;;;;7.45;2.17;;;23.80;99.90;;;;;;5037043;28;20030;-78
2023/09/30 11:24:29;;;;;;;5.28;2.17;;;23.40;99.90;;;;;;5036078;28;20030;-78
2023/09/30 11:26:55;;;;;;;9.57;2.50;;;22.30;99.90;;;;;;5035843;28;20063;-76
2023/09/30 11:29:21;;;;;;;8.10;2.55;;;21.70;99.90;;;;;;5036729;28;20087;-78
2023/09/30 11:31:48;;;;;;;5.32;1.67;;;22.10;99.90;;;;;;5035999;28;20029;-78
2023/09/30 11:34:15;;;;;;;6.88;2.85;;;23.00;99.90;;;;;;5036478;28;20021;-78
2023/09/30 11:36:48;;;;;;;6.47;2.00;;;23.30;99.90;;;;;;5036269;28;20022;-78
2023/09/30 11:39:24;;;;;;;8.98;2.00;;;22.70;99.90;;;;;;5036900;28;20028;-78
2023/09/30 11:41:50;;;;;;;4.80;1.65;;;22.50;99.90;;;;;;5035865;28;20025;-78
2023/09/30 11:44:17;;;;;;;7.65;2.25;;;23.00;99.90;;;;;;5035939;28;20022;-78
2023/09/30 11:46:48;;;;;;;5.97;2.20;;;23.20;99.90;;;;;;5036297;28;20018;-78
2023/09/30 11:49:24;;;;;;;7.32;1.95;;;23.20;99.90;;;;;;5035907;28;20021;-78
2023/09/30 11:51:51;;;;;;;6.40;1.88;;;23.20;99.90;;;;;;5036412;28;20030;-78
2023/09/30 11:54:16;;;;;;;6.93;2.35;;;23.20;99.90;;;;;;5035690;28;20053;-78
2023/09/30 11:56:42;;;;;;;7.15;1.85;;;23.80;99.90;;;;;;5036263;28;20021;-78
2023/09/30 11:59:10;;;;;;;11.35;3.20;;;24.60;99.90;;;;;;5036402;28;20032;-79
2023/09/30 12:01:39;;;;;;;4.82;2.10;;;25.40;99.90;;;;;;5036364;28;20030;-78
2023/09/30 12:04:06;;;;;;;5.40;2.15;;;25.40;99.90;;;;;;5036625;28;20017;-79
2023/09/30 12:06:34;;;;;;;5.65;1.90;;;25.70;99.90;;;;;;5036126;28;20021;-78
2023/09/30 12:08:59;;;;;;;7.57;2.05;;;25.40;99.90;;;;;;5036661;28;20021;-78
2023/09/30 12:11:25;;;;;;;7.43;1.88;;;25.80;99.90;;;;;;5035684;28;20022;-78
2023/09/30 12:13:51;;;;;;;5.40;1.88;;;25.60;99.90;;;;;;5035859;28;20037;-78
2023/09/30 12:16:17;;;;;;;3.90;1.70;;;25.80;99.80;;;;;;5036735;28;20032;-78
2023/09/30 12:18:43;;;;;;;5.32;1.45;;;25.90;98.80;;;;;;5036093;28;20021;-78
2023/09/30 12:21:13;;;;;;;4.78;1.70;;;26.10;98.00;;;;;;5035885;28;20026;-78
2023/09/30 12:23:39;;;;;;;3.80;1.20;;;25.20;99.00;;;;;;5036389;28;20044;-78
2023/09/30 12:26:05;;;;;;;6.80;1.70;;;24.90;99.70;;;;;;5036094;28;20021;-78
2023/09/30 12:28:32;;;;;;;6.35;2.15;;;25.90;98.80;;;;;;5035927;28;20112;-78
2023/09/30 12:30:59;;;;;;;8.38;2.25;;;26.00;97.90;;;;;;5035852;28;20025;-78
2023/09/30 12:33:24;;;;;;;4.35;1.63;;;26.00;96.80;;;;;;5036160;28;20064;-78
2023/09/30 12:35:51;;;;;;;6.20;1.83;;;26.10;95.20;;;;;;5036430;28;20021;-78
2023/09/30 12:38:17;;;;;;;4.78;1.63;;;26.40;93.50;;;;;;5035549;28;20025;-78
2023/09/30 12:40:43;;;;;;;3.95;1.88;;;25.10;94.20;;;;;;5039893;28;20029;-78
2023/09/30 12:43:10;;;;;;;3.72;1.70;;;25.80;93.50;;;;;;5038716;28;20033;-78